TimeCST,TemperatureF,Dew PointF,Humidity,Sea Level PressureIn,VisibilityMPH,Wind Direction,Wind SpeedMPH,Gust SpeedMPH,PrecipitationIn,Events,Conditions,WindDirDegrees,DateUTC
12:15 AM,71.6,69.8,94,29.92,10.0,South,6.9,-,N/A,,Overcast,180,2012-12-10 06:15:00
12:35 AM,71.6,69.8,94,29.91,10.0,South,6.9,-,N/A,,Overcast,180,2012-12-10 06:35:00
12:55 AM,71.6,69.8,94,29.90,10.0,South,6.9,-,N/A,,Overcast,170,2012-12-10 06:55:00
1:15 AM,71.6,69.8,94,29.90,10.0,South,9.2,-,N/A,,Overcast,170,2012-12-10 07:15:00
1:35 AM,71.6,69.8,94,29.89,10.0,South,4.6,-,N/A,,Overcast,180,2012-12-10 07:35:00
1:55 AM,71.6,69.8,94,29.89,10.0,South,6.9,-,N/A,,Overcast,170,2012-12-10 07:55:00
2:15 AM,71.6,69.8,94,29.88,10.0,South,6.9,-,N/A,,Overcast,170,2012-12-10 08:15:00
2:55 AM,69.8,69.8,100,29.85,10.0,SSE,6.9,-,N/A,,Overcast,150,2012-12-10 08:55:00
3:15 AM,69.8,69.8,100,29.84,10.0,SSE,6.9,-,N/A,,Mostly Cloudy,150,2012-12-10 09:15:00
3:35 AM,69.8,69.8,100,29.84,10.0,SSE,5.8,-,N/A,,Overcast,160,2012-12-10 09:35:00
3:55 AM,69.8,69.8,100,29.83,10.0,SSE,9.2,-,N/A,,Overcast,150,2012-12-10 09:55:00
4:15 AM,69.8,69.8,100,29.82,10.0,South,8.1,-,N/A,,Overcast,170,2012-12-10 10:15:00
4:35 AM,71.6,69.8,94,29.82,10.0,South,9.2,-,N/A,,Overcast,170,2012-12-10 10:35:00
4:55 AM,71.6,69.8,94,29.82,10.0,South,8.1,-,N/A,,Overcast,180,2012-12-10 10:55:00
5:15 AM,71.6,69.8,94,29.82,10.0,South,9.2,-,N/A,,Overcast,180,2012-12-10 11:15:00
5:35 AM,71.6,69.8,94,29.81,10.0,South,9.2,-,N/A,,Mostly Cloudy,170,2012-12-10 11:35:00
5:55 AM,71.6,69.8,94,29.81,10.0,SSE,10.4,-,N/A,,Clear,160,2012-12-10 11:55:00
6:15 AM,69.8,69.8,100,29.81,10.0,South,10.4,17.3,N/A,,Clear,170,2012-12-10 12:15:00
6:35 AM,71.6,69.8,94,29.82,10.0,South,11.5,17.3,N/A,,Scattered Clouds,180,2012-12-10 12:35:00
7:15 AM,71.6,69.8,94,29.82,10.0,South,13.8,18.4,N/A,,Scattered Clouds,180,2012-12-10 13:15:00
7:35 AM,71.6,69.8,94,29.82,10.0,South,15.0,19.6,N/A,,Scattered Clouds,180,2012-12-10 13:35:00
7:55 AM,71.6,68.0,88,29.83,10.0,South,10.4,-,N/A,,Scattered Clouds,190,2012-12-10 13:55:00
8:15 AM,73.4,69.8,88,29.83,10.0,SSW,11.5,17.3,N/A,,Mostly Cloudy,200,2012-12-10 14:15:00
8:35 AM,73.4,69.8,88,29.83,10.0,SW,8.1,-,N/A,Thunderstorm,Thunderstorm,230,2012-12-10 14:35:00
8:55 AM,71.6,68.0,88,29.83,10.0,WNW,15.0,20.7,N/A,Thunderstorm,Overcast,290,2012-12-10 14:55:00
9:15 AM,68.0,66.2,94,29.86,1.5,NW,13.8,20.7,N/A,Rain-Thunderstorm,Heavy Thunderstorms and Rain,320,2012-12-10 15:15:00
9:35 AM,66.2,66.2,100,29.86,2.0,WSW,8.1,-,N/A,Rain-Thunderstorm,Heavy Thunderstorms and Rain,240,2012-12-10 15:35:00
9:55 AM,66.2,66.2,100,29.85,7.0,Calm,Calm,-,N/A,Rain-Thunderstorm,Rain,0,2012-12-10 15:55:00
10:35 AM,66.2,66.2,100,29.85,7.0,West,5.8,-,N/A,Rain,Rain,270,2012-12-10 16:35:00
10:55 AM,66.2,66.2,100,29.85,5.0,WNW,5.8,-,N/A,Rain-Thunderstorm,Heavy Thunderstorms and Rain,290,2012-12-10 16:55:00
11:15 AM,64.4,62.6,94,29.85,7.0,NNW,17.3,26.5,N/A,Rain,Light Rain,330,2012-12-10 17:15:00
11:35 AM,60.8,60.8,100,29.87,10.0,NW,13.8,18.4,N/A,Rain,Light Rain,320,2012-12-10 17:35:00
11:55 AM,60.8,59.0,94,29.87,10.0,NW,16.1,21.9,N/A,,Overcast,320,2012-12-10 17:55:00
12:15 PM,57.2,57.2,100,29.87,10.0,NW,9.2,-,N/A,,Overcast,320,2012-12-10 18:15:00
12:35 PM,57.2,57.2,100,29.86,5.0,NNW,10.4,18.4,N/A,,Light Drizzle,330,2012-12-10 18:35:00
12:55 PM,57.2,57.2,100,29.86,10.0,NNW,10.4,-,N/A,,Overcast,340,2012-12-10 18:55:00
1:15 PM,57.2,55.4,94,29.86,10.0,NNW,10.4,18.4,N/A,,Overcast,330,2012-12-10 19:15:00
1:35 PM,57.2,55.4,94,29.87,10.0,NW,12.7,-,N/A,,Overcast,320,2012-12-10 19:35:00
1:55 PM,57.2,55.4,94,29.87,10.0,NNW,15.0,-,N/A,,Overcast,340,2012-12-10 19:55:00
2:15 PM,57.2,55.4,94,29.87,10.0,NNW,12.7,-,N/A,,Overcast,340,2012-12-10 20:15:00
2:35 PM,55.4,55.4,100,29.87,10.0,NNW,13.8,17.3,N/A,,Overcast,330,2012-12-10 20:35:00
2:55 PM,55.4,53.6,94,29.88,10.0,NW,11.5,-,N/A,,Overcast,320,2012-12-10 20:55:00
3:15 PM,55.4,53.6,94,29.89,10.0,NW,6.9,11.5,N/A,,Overcast,320,2012-12-10 21:15:00
3:35 PM,55.4,53.6,94,29.89,10.0,NNW,12.7,18.4,N/A,,Overcast,340,2012-12-10 21:35:00
3:55 PM,53.6,53.6,100,29.90,10.0,NW,11.5,17.3,N/A,,Overcast,320,2012-12-10 21:55:00
4:15 PM,53.6,51.8,94,29.91,10.0,NNW,11.5,19.6,N/A,,Overcast,330,2012-12-10 22:15:00
4:35 PM,53.6,51.8,94,29.91,10.0,NNW,10.4,-,N/A,,Overcast,330,2012-12-10 22:35:00
4:55 PM,53.6,51.8,94,29.92,10.0,NNW,11.5,19.6,N/A,,Overcast,340,2012-12-10 22:55:00
5:15 PM,53.6,51.8,94,29.93,10.0,NNW,10.4,16.1,N/A,,Overcast,330,2012-12-10 23:15:00
5:35 PM,53.6,50.0,88,29.94,10.0,NW,10.4,17.3,N/A,,Overcast,320,2012-12-10 23:35:00
5:55 PM,53.6,50.0,88,29.95,10.0,NNW,6.9,-,N/A,,Overcast,330,2012-12-10 23:55:00
6:15 PM,53.6,50.0,88,29.95,10.0,NNW,11.5,-,N/A,,Overcast,340,2012-12-11 00:15:00
6:35 PM,51.8,50.0,94,29.97,10.0,NNW,10.4,17.3,N/A,,Overcast,330,2012-12-11 00:35:00
6:55 PM,51.8,48.2,88,29.97,10.0,NNW,11.5,-,N/A,,Overcast,340,2012-12-11 00:55:00
7:15 PM,51.8,48.2,88,29.97,10.0,NNW,15.0,18.4,N/A,,Overcast,340,2012-12-11 01:15:00
7:35 PM,51.8,48.2,88,29.96,10.0,North,12.7,17.3,N/A,,Overcast,360,2012-12-11 01:35:00
7:55 PM,50.0,46.4,87,29.97,10.0,North,9.2,18.4,N/A,,Overcast,360,2012-12-11 01:55:00
8:15 PM,50.0,46.4,87,29.99,10.0,North,13.8,17.3,N/A,,Overcast,350,2012-12-11 02:15:00
8:55 PM,48.2,44.6,87,30.01,10.0,NNW,10.4,-,N/A,,Mostly Cloudy,340,2012-12-11 02:55:00
9:15 PM,48.2,44.6,87,30.02,10.0,NNW,8.1,-,N/A,,Clear,340,2012-12-11 03:15:00
9:35 PM,48.2,42.8,82,30.02,10.0,NNW,5.8,-,N/A,,Clear,330,2012-12-11 03:35:00
9:55 PM,46.4,44.6,93,30.02,10.0,NNW,4.6,-,N/A,,Clear,330,2012-12-11 03:55:00
10:15 PM,46.4,42.8,87,30.03,10.0,NW,3.5,-,N/A,,Clear,310,2012-12-11 04:15:00
10:35 PM,46.4,42.8,87,30.04,10.0,NW,3.5,-,N/A,,Clear,310,2012-12-11 04:35:00
10:55 PM,44.6,42.8,93,30.04,10.0,Calm,Calm,-,N/A,,Clear,0,2012-12-11 04:55:00
11:15 PM,44.6,42.8,93,30.03,10.0,Calm,Calm,-,N/A,,Clear,0,2012-12-11 05:15:00
11:35 PM,44.6,42.8,93,30.03,10.0,North,3.5,-,N/A,,Clear,350,2012-12-11 05:35:00
11:55 PM,44.6,42.8,93,30.04,10.0,North,3.5,-,N/A,,Clear,360,2012-12-11 05:55:00